Rodange, Luxembourg
Current Conditions -  °F | °C
As of 11:20 AM on Tuesday 27 Jan 2015 (Local Time) from ELLX Reporting Station
Scattered Clouds Scattered Clouds  
Wind Chill: 30°   Ceiling: Unl
Heat Index: 36°   Visibility: 3mi
Dew Point: 36°   Wind: 7mph
Humidity: 100%   Direction: 270°W
Pressure: 30.24"   Gusts: NA
Location:  49.55°N, 5.84°E
Report Text: ELLX 271020Z 27006KT 5000 FEW005 SCT033 02/02 Q1024 NOSIG
Loading
Personal Weather Stations






























Interactive Weather Map New forecast layout! Learn more

10-Day Weather Forecast

Advertisements
Track Severe Weather on mobile